Jatai, Brazil
Current Conditions -  °F | °C
As of 5:00 PM on Sunday 23 Nov 2014 (Local Time) from SBGO Reporting Station
Light Rain Light Rain  
Wind Chill: 21°   Ceiling: 10000
Heat Index: 21°   Visibility: 6mi
Dew Point: 20°   Wind: 6mph
Humidity: 94%   Direction: 340°NNW
Pressure: 29.94"   Gusts: NA
Location:  17.88°S, 51.71°W
Report Text: SBGO 231900Z 34005KT 9999 -RA FEW030 BKN100 21/20 Q1014 RETS
Loading
Personal Weather Stations






























Interactive Weather Map New forecast layout! Learn more

10-Day Weather Forecast

Advertisements
Track Severe Weather on mobile